sensor_id;sensor_type;location;lat;lon;timestamp;P1;durP1;ratioP1;P2;durP2;ratioP2
76107;SDS011;64834;52.516;10.528;2023-07-13T00:01:36;3.83;;;2.95;;
76107;SDS011;64834;52.516;10.528;2023-07-13T00:04:03;3.75;;;2.95;;
76107;SDS011;64834;52.516;10.528;2023-07-13T00:06:29;8.00;;;3.00;;
76107;SDS011;64834;52.516;10.528;2023-07-13T00:08:57;3.92;;;3.08;;
76107;SDS011;64834;52.516;10.528;2023-07-13T00:11:23;5.07;;;3.00;;
76107;SDS011;64834;52.516;10.528;2023-07-13T00:13:48;4.70;;;3.30;;
76107;SDS011;64834;52.516;10.528;2023-07-13T00:16:14;4.20;;;3.03;;
76107;SDS011;64834;52.516;10.528;2023-07-13T00:18:39;6.35;;;2.90;;
76107;SDS011;64834;52.516;10.528;2023-07-13T00:21:05;7.22;;;2.92;;
76107;SDS011;64834;52.516;10.528;2023-07-13T00:23:31;5.63;;;3.50;;
76107;SDS011;64834;52.516;10.528;2023-07-13T00:25:59;7.45;;;3.35;;
76107;SDS011;64834;52.516;10.528;2023-07-13T00:28:25;5.18;;;3.35;;
76107;SDS011;64834;52.516;10.528;2023-07-13T00:30:50;6.57;;;3.67;;
76107;SDS011;64834;52.516;10.528;2023-07-13T00:33:15;6.80;;;4.00;;
76107;SDS011;64834;52.516;10.528;2023-07-13T00:35:41;3.78;;;2.85;;
76107;SDS011;64834;52.516;10.528;2023-07-13T00:38:08;4.72;;;2.97;;
76107;SDS011;64834;52.516;10.528;2023-07-13T00:40:34;4.03;;;3.10;;
76107;SDS011;64834;52.516;10.528;2023-07-13T00:42:59;5.10;;;2.78;;
76107;SDS011;64834;52.516;10.528;2023-07-13T00:47:50;5.75;;;3.28;;
76107;SDS011;64834;52.516;10.528;2023-07-13T00:50:15;5.05;;;3.13;;
76107;SDS011;64834;52.516;10.528;2023-07-13T00:52:44;4.63;;;2.85;;
76107;SDS011;64834;52.516;10.528;2023-07-13T00:55:13;4.13;;;3.30;;
76107;SDS011;64834;52.516;10.528;2023-07-13T00:57:40;4.75;;;3.10;;
76107;SDS011;64834;52.516;10.528;2023-07-13T01:00:06;5.80;;;3.35;;
76107;SDS011;64834;52.516;10.528;2023-07-13T01:02:33;4.78;;;3.00;;
76107;SDS011;64834;52.516;10.528;2023-07-13T01:05:09;4.18;;;3.15;;
76107;SDS011;64834;52.516;10.528;2023-07-13T01:07:36;7.15;;;3.53;;
76107;SDS011;64834;52.516;10.528;2023-07-13T01:10:02;6.63;;;2.80;;
76107;SDS011;64834;52.516;10.528;2023-07-13T01:12:28;4.90;;;3.30;;
76107;SDS011;64834;52.516;10.528;2023-07-13T01:14:58;4.43;;;2.90;;
76107;SDS011;64834;52.516;10.528;2023-07-13T01:17:25;4.30;;;3.00;;
76107;SDS011;64834;52.516;10.528;2023-07-13T01:19:51;4.50;;;2.95;;
76107;SDS011;64834;52.516;10.528;2023-07-13T01:22:18;4.55;;;3.38;;
76107;SDS011;64834;52.516;10.528;2023-07-13T01:24:44;4.07;;;2.72;;
76107;SDS011;64834;52.516;10.528;2023-07-13T01:27:12;3.28;;;2.90;;
76107;SDS011;64834;52.516;10.528;2023-07-13T01:29:41;4.43;;;2.90;;
76107;SDS011;64834;52.516;10.528;2023-07-13T01:32:08;4.38;;;3.17;;
76107;SDS011;64834;52.516;10.528;2023-07-13T01:34:35;3.85;;;3.13;;
76107;SDS011;64834;52.516;10.528;2023-07-13T01:37:02;4.60;;;2.65;;
76107;SDS011;64834;52.516;10.528;2023-07-13T01:39:28;3.95;;;3.00;;
76107;SDS011;64834;52.516;10.528;2023-07-13T01:41:53;5.65;;;3.40;;
76107;SDS011;64834;52.516;10.528;2023-07-13T01:44:18;4.90;;;3.38;;
76107;SDS011;64834;52.516;10.528;2023-07-13T01:46:43;5.10;;;3.50;;
76107;SDS011;64834;52.516;10.528;2023-07-13T01:49:09;4.20;;;3.13;;
76107;SDS011;64834;52.516;10.528;2023-07-13T01:51:34;4.85;;;3.03;;
76107;SDS011;64834;52.516;10.528;2023-07-13T01:53:59;4.97;;;2.97;;
76107;SDS011;64834;52.516;10.528;2023-07-13T01:56:25;4.82;;;3.20;;
76107;SDS011;64834;52.516;10.528;2023-07-13T01:58:50;3.70;;;3.22;;
76107;SDS011;64834;52.516;10.528;2023-07-13T02:01:17;3.67;;;3.15;;
76107;SDS011;64834;52.516;10.528;2023-07-13T02:03:42;4.75;;;3.10;;
76107;SDS011;64834;52.516;10.528;2023-07-13T02:06:08;4.13;;;3.00;;
76107;SDS011;64834;52.516;10.528;2023-07-13T02:08:33;3.80;;;3.03;;
76107;SDS011;64834;52.516;10.528;2023-07-13T02:10:59;4.72;;;2.92;;
76107;SDS011;64834;52.516;10.528;2023-07-13T02:13:24;4.95;;;3.20;;
76107;SDS011;64834;52.516;10.528;2023-07-13T02:15:50;4.30;;;3.00;;
76107;SDS011;64834;52.516;10.528;2023-07-13T02:18:16;3.58;;;2.42;;
76107;SDS011;64834;52.516;10.528;2023-07-13T02:20:42;2.92;;;2.58;;
76107;SDS011;64834;52.516;10.528;2023-07-13T02:23:07;4.53;;;2.95;;
76107;SDS011;64834;52.516;10.528;2023-07-13T02:25:33;3.90;;;3.00;;
76107;SDS011;64834;52.516;10.528;2023-07-13T02:27:58;4.55;;;2.60;;
76107;SDS011;64834;52.516;10.528;2023-07-13T02:30:23;5.95;;;3.40;;
76107;SDS011;64834;52.516;10.528;2023-07-13T02:32:49;4.18;;;2.90;;
76107;SDS011;64834;52.516;10.528;2023-07-13T02:35:15;3.80;;;2.75;;
76107;SDS011;64834;52.516;10.528;2023-07-13T02:37:40;4.68;;;2.85;;
76107;SDS011;64834;52.516;10.528;2023-07-13T02:40:06;5.15;;;3.00;;
76107;SDS011;64834;52.516;10.528;2023-07-13T02:44:58;5.60;;;3.00;;
76107;SDS011;64834;52.516;10.528;2023-07-13T02:47:24;6.10;;;3.45;;
76107;SDS011;64834;52.516;10.528;2023-07-13T02:49:49;4.13;;;3.40;;
76107;SDS011;64834;52.516;10.528;2023-07-13T02:52:14;5.05;;;3.15;;
76107;SDS011;64834;52.516;10.528;2023-07-13T02:54:40;4.03;;;3.17;;
76107;SDS011;64834;52.516;10.528;2023-07-13T02:57:05;5.85;;;3.20;;
76107;SDS011;64834;52.516;10.528;2023-07-13T02:59:31;5.03;;;3.22;;
76107;SDS011;64834;52.516;10.528;2023-07-13T03:01:57;4.20;;;3.13;;
76107;SDS011;64834;52.516;10.528;2023-07-13T03:04:22;5.75;;;3.25;;
76107;SDS011;64834;52.516;10.528;2023-07-13T03:06:48;4.63;;;3.33;;
76107;SDS011;64834;52.516;10.528;2023-07-13T03:09:13;4.30;;;2.90;;
76107;SDS011;64834;52.516;10.528;2023-07-13T03:11:38;6.13;;;3.53;;
76107;SDS011;64834;52.516;10.528;2023-07-13T03:14:04;6.15;;;3.17;;
76107;SDS011;64834;52.516;10.528;2023-07-13T03:16:29;5.47;;;3.22;;
76107;SDS011;64834;52.516;10.528;2023-07-13T03:18:55;5.25;;;3.33;;
76107;SDS011;64834;52.516;10.528;2023-07-13T03:21:20;3.67;;;2.97;;
76107;SDS011;64834;52.516;10.528;2023-07-13T03:23:46;4.03;;;2.72;;
76107;SDS011;64834;52.516;10.528;2023-07-13T03:26:14;5.65;;;3.05;;
76107;SDS011;64834;52.516;10.528;2023-07-13T03:28:42;7.07;;;3.20;;
76107;SDS011;64834;52.516;10.528;2023-07-13T03:31:09;4.82;;;3.15;;
76107;SDS011;64834;52.516;10.528;2023-07-13T03:33:36;4.50;;;2.92;;
76107;SDS011;64834;52.516;10.528;2023-07-13T03:36:03;5.20;;;3.20;;
76107;SDS011;64834;52.516;10.528;2023-07-13T03:38:30;4.90;;;3.60;;
76107;SDS011;64834;52.516;10.528;2023-07-13T03:40:56;5.10;;;3.35;;
76107;SDS011;64834;52.516;10.528;2023-07-13T03:43:21;4.45;;;3.22;;
76107;SDS011;64834;52.516;10.528;2023-07-13T03:45:47;7.00;;;3.42;;
76107;SDS011;64834;52.516;10.528;2023-07-13T03:48:13;4.72;;;3.30;;
76107;SDS011;64834;52.516;10.528;2023-07-13T03:50:38;4.70;;;3.05;;
76107;SDS011;64834;52.516;10.528;2023-07-13T03:53:04;6.43;;;3.40;;
76107;SDS011;64834;52.516;10.528;2023-07-13T03:55:29;6.70;;;3.17;;
76107;SDS011;64834;52.516;10.528;2023-07-13T03:57:59;5.10;;;3.40;;
76107;SDS011;64834;52.516;10.528;2023-07-13T04:00:44;7.70;;;3.78;;
76107;SDS011;64834;52.516;10.528;2023-07-13T04:03:09;6.97;;;3.50;;
76107;SDS011;64834;52.516;10.528;2023-07-13T04:05:35;6.93;;;3.63;;
76107;SDS011;64834;52.516;10.528;2023-07-13T04:08:01;4.68;;;3.80;;
76107;SDS011;64834;52.516;10.528;2023-07-13T04:10:26;7.05;;;3.90;;
76107;SDS011;64834;52.516;10.528;2023-07-13T04:12:51;5.82;;;3.70;;
76107;SDS011;64834;52.516;10.528;2023-07-13T04:15:17;5.05;;;3.10;;
76107;SDS011;64834;52.516;10.528;2023-07-13T04:17:42;7.82;;;3.72;;
76107;SDS011;64834;52.516;10.528;2023-07-13T04:20:07;4.88;;;3.22;;
76107;SDS011;64834;52.516;10.528;2023-07-13T04:22:33;6.20;;;2.92;;
76107;SDS011;64834;52.516;10.528;2023-07-13T04:24:58;5.13;;;3.45;;
76107;SDS011;64834;52.516;10.528;2023-07-13T04:27:23;5.60;;;3.05;;
76107;SDS011;64834;52.516;10.528;2023-07-13T04:29:49;3.90;;;2.83;;
76107;SDS011;64834;52.516;10.528;2023-07-13T04:32:14;5.28;;;3.17;;
76107;SDS011;64834;52.516;10.528;2023-07-13T04:34:39;4.85;;;2.95;;
76107;SDS011;64834;52.516;10.528;2023-07-13T04:37:05;6.45;;;3.08;;
76107;SDS011;64834;52.516;10.528;2023-07-13T04:39:30;5.82;;;3.33;;
76107;SDS011;64834;52.516;10.528;2023-07-13T04:41:55;5.47;;;2.85;;
76107;SDS011;64834;52.516;10.528;2023-07-13T04:44:21;5.57;;;2.80;;
76107;SDS011;64834;52.516;10.528;2023-07-13T04:46:46;3.47;;;2.70;;
76107;SDS011;64834;52.516;10.528;2023-07-13T04:49:11;5.18;;;3.05;;
76107;SDS011;64834;52.516;10.528;2023-07-13T04:51:37;4.82;;;3.22;;
76107;SDS011;64834;52.516;10.528;2023-07-13T04:54:02;7.25;;;3.00;;
76107;SDS011;64834;52.516;10.528;2023-07-13T04:56:30;5.22;;;2.85;;
76107;SDS011;64834;52.516;10.528;2023-07-13T04:58:55;4.90;;;2.53;;
76107;SDS011;64834;52.516;10.528;2023-07-13T05:01:20;5.20;;;2.88;;
76107;SDS011;64834;52.516;10.528;2023-07-13T05:03:46;4.97;;;2.83;;
76107;SDS011;64834;52.516;10.528;2023-07-13T05:06:11;4.13;;;2.45;;
76107;SDS011;64834;52.516;10.528;2023-07-13T05:08:36;4.63;;;2.45;;
76107;SDS011;64834;52.516;10.528;2023-07-13T05:11:02;4.03;;;2.60;;
76107;SDS011;64834;52.516;10.528;2023-07-13T05:13:29;4.63;;;2.50;;
76107;SDS011;64834;52.516;10.528;2023-07-13T05:15:56;3.90;;;2.28;;
76107;SDS011;64834;52.516;10.528;2023-07-13T05:18:29;5.30;;;2.53;;
76107;SDS011;64834;52.516;10.528;2023-07-13T05:20:59;3.58;;;2.20;;
76107;SDS011;64834;52.516;10.528;2023-07-13T05:23:29;4.07;;;2.00;;
76107;SDS011;64834;52.516;10.528;2023-07-13T05:25:55;3.88;;;1.90;;
76107;SDS011;64834;52.516;10.528;2023-07-13T05:28:21;4.25;;;1.98;;
76107;SDS011;64834;52.516;10.528;2023-07-13T05:30:47;5.93;;;1.92;;
76107;SDS011;64834;52.516;10.528;2023-07-13T05:33:13;4.80;;;1.90;;
76107;SDS011;64834;52.516;10.528;2023-07-13T05:35:39;4.53;;;1.70;;
76107;SDS011;64834;52.516;10.528;2023-07-13T05:38:05;6.25;;;1.88;;
76107;SDS011;64834;52.516;10.528;2023-07-13T05:40:30;4.90;;;1.45;;
76107;SDS011;64834;52.516;10.528;2023-07-13T05:42:55;5.82;;;2.05;;
76107;SDS011;64834;52.516;10.528;2023-07-13T05:45:21;6.72;;;2.08;;
76107;SDS011;64834;52.516;10.528;2023-07-13T05:47:46;3.63;;;2.03;;
76107;SDS011;64834;52.516;10.528;2023-07-13T05:50:12;4.32;;;1.75;;
76107;SDS011;64834;52.516;10.528;2023-07-13T05:52:37;4.45;;;1.70;;
76107;SDS011;64834;52.516;10.528;2023-07-13T05:55:03;4.28;;;1.60;;
76107;SDS011;64834;52.516;10.528;2023-07-13T05:57:29;4.07;;;1.67;;
76107;SDS011;64834;52.516;10.528;2023-07-13T05:59:55;5.10;;;1.80;;
76107;SDS011;64834;52.516;10.528;2023-07-13T06:02:20;5.68;;;1.83;;
76107;SDS011;64834;52.516;10.528;2023-07-13T06:04:46;3.97;;;2.08;;
76107;SDS011;64834;52.516;10.528;2023-07-13T06:07:11;5.07;;;1.77;;
76107;SDS011;64834;52.516;10.528;2023-07-13T06:09:36;4.45;;;1.83;;
76107;SDS011;64834;52.516;10.528;2023-07-13T06:12:02;6.30;;;2.10;;
76107;SDS011;64834;52.516;10.528;2023-07-13T06:14:27;4.25;;;1.58;;
76107;SDS011;64834;52.516;10.528;2023-07-13T06:16:52;4.00;;;1.58;;
76107;SDS011;64834;52.516;10.528;2023-07-13T06:19:18;5.78;;;1.88;;
76107;SDS011;64834;52.516;10.528;2023-07-13T06:21:43;5.53;;;2.03;;
76107;SDS011;64834;52.516;10.528;2023-07-13T06:24:08;3.97;;;1.70;;
76107;SDS011;64834;52.516;10.528;2023-07-13T06:26:34;4.15;;;1.13;;
76107;SDS011;64834;52.516;10.528;2023-07-13T06:28:59;6.03;;;1.73;;
76107;SDS011;64834;52.516;10.528;2023-07-13T06:31:24;5.07;;;2.10;;
76107;SDS011;64834;52.516;10.528;2023-07-13T06:33:50;4.43;;;1.52;;
76107;SDS011;64834;52.516;10.528;2023-07-13T06:36:15;3.35;;;1.58;;
76107;SDS011;64834;52.516;10.528;2023-07-13T06:38:40;4.32;;;1.65;;
76107;SDS011;64834;52.516;10.528;2023-07-13T06:41:06;4.22;;;1.58;;
76107;SDS011;64834;52.516;10.528;2023-07-13T06:43:32;4.28;;;2.28;;
76107;SDS011;64834;52.516;10.528;2023-07-13T06:45:58;5.07;;;1.60;;
76107;SDS011;64834;52.516;10.528;2023-07-13T06:48:24;4.53;;;1.92;;
76107;SDS011;64834;52.516;10.528;2023-07-13T06:50:49;3.53;;;1.20;;
76107;SDS011;64834;52.516;10.528;2023-07-13T06:53:17;7.30;;;2.33;;
76107;SDS011;64834;52.516;10.528;2023-07-13T06:55:43;4.40;;;1.83;;
76107;SDS011;64834;52.516;10.528;2023-07-13T06:58:09;5.97;;;1.45;;
76107;SDS011;64834;52.516;10.528;2023-07-13T07:00:34;2.20;;;0.85;;
76107;SDS011;64834;52.516;10.528;2023-07-13T07:02:59;3.80;;;1.40;;
76107;SDS011;64834;52.516;10.528;2023-07-13T07:05:25;3.78;;;1.20;;
76107;SDS011;64834;52.516;10.528;2023-07-13T07:07:51;7.40;;;1.50;;
76107;SDS011;64834;52.516;10.528;2023-07-13T07:10:17;6.13;;;1.30;;
76107;SDS011;64834;52.516;10.528;2023-07-13T07:12:43;5.80;;;2.00;;
76107;SDS011;64834;52.516;10.528;2023-07-13T07:15:08;4.53;;;1.45;;
76107;SDS011;64834;52.516;10.528;2023-07-13T07:17:34;6.05;;;1.02;;
76107;SDS011;64834;52.516;10.528;2023-07-13T07:19:59;2.47;;;1.25;;
76107;SDS011;64834;52.516;10.528;2023-07-13T07:22:25;3.80;;;1.10;;
76107;SDS011;64834;52.516;10.528;2023-07-13T07:24:53;5.97;;;1.45;;
76107;SDS011;64834;52.516;10.528;2023-07-13T07:27:19;5.53;;;1.88;;
76107;SDS011;64834;52.516;10.528;2023-07-13T07:29:44;4.80;;;1.80;;
76107;SDS011;64834;52.516;10.528;2023-07-13T07:32:09;6.18;;;1.83;;
76107;SDS011;64834;52.516;10.528;2023-07-13T07:34:35;3.28;;;1.60;;
76107;SDS011;64834;52.516;10.528;2023-07-13T07:37:00;6.07;;;1.83;;
76107;SDS011;64834;52.516;10.528;2023-07-13T07:39:26;5.85;;;1.92;;
76107;SDS011;64834;52.516;10.528;2023-07-13T07:41:52;3.58;;;1.40;;
76107;SDS011;64834;52.516;10.528;2023-07-13T07:44:17;5.82;;;1.52;;
76107;SDS011;64834;52.516;10.528;2023-07-13T07:46:43;3.72;;;1.50;;
76107;SDS011;64834;52.516;10.528;2023-07-13T07:49:08;5.00;;;1.70;;
76107;SDS011;64834;52.516;10.528;2023-07-13T07:51:33;6.13;;;1.50;;
76107;SDS011;64834;52.516;10.528;2023-07-13T07:53:59;5.57;;;1.60;;
76107;SDS011;64834;52.516;10.528;2023-07-13T07:56:24;4.70;;;1.73;;
76107;SDS011;64834;52.516;10.528;2023-07-13T07:58:50;8.38;;;2.13;;
76107;SDS011;64834;52.516;10.528;2023-07-13T08:01:15;3.88;;;2.10;;
76107;SDS011;64834;52.516;10.528;2023-07-13T08:03:41;7.15;;;2.35;;
76107;SDS011;64834;52.516;10.528;2023-07-13T08:06:06;5.75;;;2.50;;
76107;SDS011;64834;52.516;10.528;2023-07-13T08:08:31;5.57;;;2.00;;
76107;SDS011;64834;52.516;10.528;2023-07-13T08:10:57;5.38;;;2.10;;
76107;SDS011;64834;52.516;10.528;2023-07-13T08:13:22;6.35;;;2.53;;
76107;SDS011;64834;52.516;10.528;2023-07-13T08:15:47;5.32;;;2.35;;
76107;SDS011;64834;52.516;10.528;2023-07-13T08:18:14;5.22;;;2.45;;
76107;SDS011;64834;52.516;10.528;2023-07-13T08:20:40;5.20;;;2.60;;
76107;SDS011;64834;52.516;10.528;2023-07-13T08:23:06;5.18;;;2.30;;
76107;SDS011;64834;52.516;10.528;2023-07-13T08:25:34;5.85;;;2.15;;
76107;SDS011;64834;52.516;10.528;2023-07-13T08:27:59;8.45;;;2.40;;
76107;SDS011;64834;52.516;10.528;2023-07-13T08:30:25;4.32;;;2.20;;
76107;SDS011;64834;52.516;10.528;2023-07-13T08:32:50;4.95;;;2.60;;
76107;SDS011;64834;52.516;10.528;2023-07-13T08:35:15;4.13;;;2.65;;
76107;SDS011;64834;52.516;10.528;2023-07-13T08:37:41;3.88;;;2.67;;
76107;SDS011;64834;52.516;10.528;2023-07-13T08:40:10;4.75;;;2.67;;
76107;SDS011;64834;52.516;10.528;2023-07-13T08:42:39;4.07;;;2.20;;
76107;SDS011;64834;52.516;10.528;2023-07-13T08:47:54;5.47;;;2.13;;
76107;SDS011;64834;52.516;10.528;2023-07-13T08:50:27;4.72;;;2.28;;
76107;SDS011;64834;52.516;10.528;2023-07-13T08:52:55;5.25;;;2.20;;
76107;SDS011;64834;52.516;10.528;2023-07-13T08:55:29;4.32;;;2.08;;
76107;SDS011;64834;52.516;10.528;2023-07-13T08:58:03;4.22;;;1.77;;
76107;SDS011;64834;52.516;10.528;2023-07-13T09:00:37;2.45;;;1.88;;
76107;SDS011;64834;52.516;10.528;2023-07-13T09:03:12;5.97;;;2.45;;
76107;SDS011;64834;52.516;10.528;2023-07-13T09:05:45;3.00;;;1.60;;
76107;SDS011;64834;52.516;10.528;2023-07-13T09:11:00;4.03;;;1.70;;
76107;SDS011;64834;52.516;10.528;2023-07-13T09:13:55;5.45;;;1.38;;
76107;SDS011;64834;52.516;10.528;2023-07-13T09:16:31;4.85;;;1.50;;
76107;SDS011;64834;52.516;10.528;2023-07-13T09:18:59;4.30;;;1.45;;
76107;SDS011;64834;52.516;10.528;2023-07-13T09:21:33;2.97;;;1.23;;
76107;SDS011;64834;52.516;10.528;2023-07-13T09:26:59;3.47;;;1.65;;
76107;SDS011;64834;52.516;10.528;2023-07-13T09:29:32;4.03;;;1.10;;
76107;SDS011;64834;52.516;10.528;2023-07-13T09:32:01;4.38;;;1.40;;
76107;SDS011;64834;52.516;10.528;2023-07-13T09:34:32;4.88;;;1.17;;
76107;SDS011;64834;52.516;10.528;2023-07-13T09:36:58;3.35;;;1.60;;
76107;SDS011;64834;52.516;10.528;2023-07-13T09:39:31;5.45;;;1.20;;
76107;SDS011;64834;52.516;10.528;2023-07-13T09:44:30;2.45;;;1.30;;
76107;SDS011;64834;52.516;10.528;2023-07-13T09:48:02;4.32;;;1.30;;
76107;SDS011;64834;52.516;10.528;2023-07-13T09:50:29;2.60;;;1.40;;
76107;SDS011;64834;52.516;10.528;2023-07-13T09:52:55;3.15;;;1.30;;
76107;SDS011;64834;52.516;10.528;2023-07-13T09:55:24;3.75;;;1.10;;
76107;SDS011;64834;52.516;10.528;2023-07-13T09:57:51;7.22;;;1.20;;
76107;SDS011;64834;52.516;10.528;2023-07-13T10:02:57;4.30;;;1.30;;
76107;SDS011;64834;52.516;10.528;2023-07-13T10:05:28;3.85;;;1.20;;
76107;SDS011;64834;52.516;10.528;2023-07-13T10:08:02;4.28;;;1.33;;
76107;SDS011;64834;52.516;10.528;2023-07-13T10:10:28;4.60;;;1.00;;
76107;SDS011;64834;52.516;10.528;2023-07-13T10:12:53;4.93;;;1.65;;
76107;SDS011;64834;52.516;10.528;2023-07-13T10:15:21;3.22;;;1.42;;
76107;SDS011;64834;52.516;10.528;2023-07-13T10:17:49;2.95;;;1.50;;
76107;SDS011;64834;52.516;10.528;2023-07-13T10:20:15;5.18;;;1.30;;
76107;SDS011;64834;52.516;10.528;2023-07-13T10:22:45;2.90;;;1.40;;
76107;SDS011;64834;52.516;10.528;2023-07-13T10:25:19;4.85;;;1.55;;
76107;SDS011;64834;52.516;10.528;2023-07-13T10:27:47;2.97;;;1.40;;
76107;SDS011;64834;52.516;10.528;2023-07-13T10:30:19;4.03;;;1.55;;
76107;SDS011;64834;52.516;10.528;2023-07-13T10:32:48;3.47;;;1.05;;
76107;SDS011;64834;52.516;10.528;2023-07-13T10:37:45;2.88;;;1.58;;
76107;SDS011;64834;52.516;10.528;2023-07-13T10:40:16;3.22;;;1.10;;
76107;SDS011;64834;52.516;10.528;2023-07-13T10:42:46;4.90;;;1.10;;
76107;SDS011;64834;52.516;10.528;2023-07-13T10:45:15;2.53;;;1.00;;
76107;SDS011;64834;52.516;10.528;2023-07-13T10:47:43;1.60;;;0.90;;
76107;SDS011;64834;52.516;10.528;2023-07-13T10:50:15;3.67;;;1.55;;
76107;SDS011;64834;52.516;10.528;2023-07-13T10:52:54;3.08;;;1.55;;
76107;SDS011;64834;52.516;10.528;2023-07-13T11:01:09;3.17;;;1.13;;
76107;SDS011;64834;52.516;10.528;2023-07-13T11:03:38;2.97;;;1.10;;
76107;SDS011;64834;52.516;10.528;2023-07-13T11:18:49;4.18;;;1.20;;
76107;SDS011;64834;52.516;10.528;2023-07-13T11:21:20;1.92;;;1.00;;
76107;SDS011;64834;52.516;10.528;2023-07-13T11:23:53;5.22;;;1.65;;
76107;SDS011;64834;52.516;10.528;2023-07-13T11:29:27;4.03;;;1.30;;
76107;SDS011;64834;52.516;10.528;2023-07-13T11:32:15;2.55;;;0.98;;
76107;SDS011;64834;52.516;10.528;2023-07-13T11:34:47;4.10;;;1.23;;
76107;SDS011;64834;52.516;10.528;2023-07-13T11:37:14;4.35;;;1.50;;
76107;SDS011;64834;52.516;10.528;2023-07-13T11:39:43;4.30;;;1.20;;
76107;SDS011;64834;52.516;10.528;2023-07-13T11:42:15;3.90;;;1.02;;
76107;SDS011;64834;52.516;10.528;2023-07-13T11:44:43;2.58;;;1.00;;
76107;SDS011;64834;52.516;10.528;2023-07-13T11:47:11;2.72;;;1.15;;
76107;SDS011;64834;52.516;10.528;2023-07-13T11:49:43;2.53;;;1.20;;
76107;SDS011;64834;52.516;10.528;2023-07-13T11:52:15;4.88;;;1.35;;
76107;SDS011;64834;52.516;10.528;2023-07-13T11:54:49;3.90;;;1.05;;
76107;SDS011;64834;52.516;10.528;2023-07-13T11:57:33;3.78;;;1.30;;
76107;SDS011;64834;52.516;10.528;2023-07-13T12:00:04;4.63;;;1.40;;
76107;SDS011;64834;52.516;10.528;2023-07-13T12:02:43;4.10;;;1.10;;
76107;SDS011;64834;52.516;10.528;2023-07-13T12:05:11;3.83;;;1.52;;
76107;SDS011;64834;52.516;10.528;2023-07-13T12:07:40;4.35;;;1.17;;
76107;SDS011;64834;52.516;10.528;2023-07-13T12:12:37;2.50;;;1.20;;
76107;SDS011;64834;52.516;10.528;2023-07-13T12:15:09;2.33;;;1.10;;
76107;SDS011;64834;52.516;10.528;2023-07-13T12:17:36;3.97;;;1.25;;
76107;SDS011;64834;52.516;10.528;2023-07-13T12:20:03;4.38;;;1.20;;
76107;SDS011;64834;52.516;10.528;2023-07-13T12:22:48;2.70;;;1.10;;
76107;SDS011;64834;52.516;10.528;2023-07-13T12:25:15;3.85;;;1.30;;
76107;SDS011;64834;52.516;10.528;2023-07-13T12:27:42;3.70;;;1.20;;
76107;SDS011;64834;52.516;10.528;2023-07-13T12:30:29;3.35;;;1.15;;
76107;SDS011;64834;52.516;10.528;2023-07-13T12:32:56;3.53;;;1.10;;
76107;SDS011;64834;52.516;10.528;2023-07-13T12:35:23;3.00;;;0.93;;
76107;SDS011;64834;52.516;10.528;2023-07-13T12:37:50;3.67;;;1.25;;
76107;SDS011;64834;52.516;10.528;2023-07-13T12:40:17;2.35;;;1.13;;
76107;SDS011;64834;52.516;10.528;2023-07-13T12:42:46;4.10;;;1.33;;
76107;SDS011;64834;52.516;10.528;2023-07-13T12:45:26;3.33;;;0.95;;
76107;SDS011;64834;52.516;10.528;2023-07-13T12:50:41;2.65;;;1.38;;
76107;SDS011;64834;52.516;10.528;2023-07-13T12:53:21;2.92;;;1.20;;
76107;SDS011;64834;52.516;10.528;2023-07-13T12:55:50;3.25;;;1.23;;
76107;SDS011;64834;52.516;10.528;2023-07-13T12:58:25;3.65;;;1.20;;
76107;SDS011;64834;52.516;10.528;2023-07-13T13:00:57;2.75;;;0.90;;
76107;SDS011;64834;52.516;10.528;2023-07-13T13:03:26;2.63;;;1.08;;
76107;SDS011;64834;52.516;10.528;2023-07-13T13:06:00;2.95;;;1.45;;
76107;SDS011;64834;52.516;10.528;2023-07-13T13:08:28;2.85;;;1.20;;
76107;SDS011;64834;52.516;10.528;2023-07-13T13:10:55;3.63;;;1.30;;
76107;SDS011;64834;52.516;10.528;2023-07-13T13:13:20;2.53;;;1.20;;
76107;SDS011;64834;52.516;10.528;2023-07-13T13:15:46;4.18;;;1.10;;
76107;SDS011;64834;52.516;10.528;2023-07-13T13:18:16;5.00;;;1.40;;
76107;SDS011;64834;52.516;10.528;2023-07-13T13:20:43;4.20;;;1.20;;
76107;SDS011;64834;52.516;10.528;2023-07-13T13:23:11;4.07;;;1.17;;
76107;SDS011;64834;52.516;10.528;2023-07-13T13:25:39;4.80;;;1.20;;
76107;SDS011;64834;52.516;10.528;2023-07-13T13:28:04;5.72;;;1.10;;
76107;SDS011;64834;52.516;10.528;2023-07-13T13:30:30;2.88;;;1.35;;
76107;SDS011;64834;52.516;10.528;2023-07-13T13:32:56;3.80;;;1.20;;
76107;SDS011;64834;52.516;10.528;2023-07-13T13:35:21;2.83;;;1.60;;
76107;SDS011;64834;52.516;10.528;2023-07-13T13:37:47;3.10;;;1.00;;
76107;SDS011;64834;52.516;10.528;2023-07-13T13:40:13;2.70;;;1.17;;
76107;SDS011;64834;52.516;10.528;2023-07-13T13:42:39;3.75;;;0.98;;
76107;SDS011;64834;52.516;10.528;2023-07-13T13:45:04;3.45;;;0.98;;
76107;SDS011;64834;52.516;10.528;2023-07-13T13:47:31;2.53;;;1.00;;
76107;SDS011;64834;52.516;10.528;2023-07-13T13:49:58;2.30;;;1.15;;
76107;SDS011;64834;52.516;10.528;2023-07-13T13:52:24;2.03;;;1.00;;
76107;SDS011;64834;52.516;10.528;2023-07-13T13:54:50;3.88;;;1.52;;
76107;SDS011;64834;52.516;10.528;2023-07-13T13:57:20;4.45;;;1.20;;
76107;SDS011;64834;52.516;10.528;2023-07-13T13:59:47;2.47;;;1.20;;
76107;SDS011;64834;52.516;10.528;2023-07-13T14:02:21;6.40;;;1.33;;
76107;SDS011;64834;52.516;10.528;2023-07-13T14:04:54;3.35;;;1.02;;
76107;SDS011;64834;52.516;10.528;2023-07-13T14:07:23;2.42;;;1.38;;
76107;SDS011;64834;52.516;10.528;2023-07-13T14:09:48;4.07;;;1.05;;
76107;SDS011;64834;52.516;10.528;2023-07-13T14:12:13;1.60;;;1.13;;
76107;SDS011;64834;52.516;10.528;2023-07-13T14:14:39;3.75;;;1.40;;
76107;SDS011;64834;52.516;10.528;2023-07-13T14:17:08;6.47;;;1.92;;
76107;SDS011;64834;52.516;10.528;2023-07-13T14:19:46;3.33;;;2.40;;
76107;SDS011;64834;52.516;10.528;2023-07-13T14:22:15;4.05;;;2.13;;
76107;SDS011;64834;52.516;10.528;2023-07-13T14:24:41;5.55;;;2.55;;
76107;SDS011;64834;52.516;10.528;2023-07-13T14:27:08;3.47;;;1.90;;
76107;SDS011;64834;52.516;10.528;2023-07-13T14:29:37;4.38;;;2.17;;
76107;SDS011;64834;52.516;10.528;2023-07-13T14:32:03;3.70;;;1.75;;
76107;SDS011;64834;52.516;10.528;2023-07-13T14:34:30;4.15;;;2.28;;
76107;SDS011;64834;52.516;10.528;2023-07-13T14:36:55;7.32;;;2.30;;
76107;SDS011;64834;52.516;10.528;2023-07-13T14:39:22;3.67;;;2.30;;
76107;SDS011;64834;52.516;10.528;2023-07-13T14:41:50;3.08;;;1.98;;
76107;SDS011;64834;52.516;10.528;2023-07-13T14:44:19;3.85;;;1.80;;
76107;SDS011;64834;52.516;10.528;2023-07-13T14:46:48;5.55;;;2.00;;
76107;SDS011;64834;52.516;10.528;2023-07-13T14:49:30;6.78;;;2.38;;
76107;SDS011;64834;52.516;10.528;2023-07-13T14:52:18;5.03;;;1.92;;
76107;SDS011;64834;52.516;10.528;2023-07-13T14:54:45;4.18;;;2.03;;
76107;SDS011;64834;52.516;10.528;2023-07-13T14:59:37;4.05;;;2.00;;
76107;SDS011;64834;52.516;10.528;2023-07-13T15:02:08;3.05;;;1.60;;
76107;SDS011;64834;52.516;10.528;2023-07-13T15:04:42;4.53;;;1.65;;
76107;SDS011;64834;52.516;10.528;2023-07-13T15:07:11;5.22;;;2.22;;
76107;SDS011;64834;52.516;10.528;2023-07-13T15:09:40;2.63;;;1.80;;
76107;SDS011;64834;52.516;10.528;2023-07-13T15:12:06;3.40;;;2.30;;
76107;SDS011;64834;52.516;10.528;2023-07-13T15:14:31;2.38;;;1.38;;
76107;SDS011;64834;52.516;10.528;2023-07-13T15:16:57;3.08;;;1.98;;
76107;SDS011;64834;52.516;10.528;2023-07-13T15:19:23;5.18;;;2.08;;
76107;SDS011;64834;52.516;10.528;2023-07-13T15:21:50;4.07;;;1.60;;
76107;SDS011;64834;52.516;10.528;2023-07-13T15:24:17;2.85;;;1.73;;
76107;SDS011;64834;52.516;10.528;2023-07-13T15:26:43;3.53;;;2.10;;